Cotton Plant, Mississippi
Current Conditions -  °F | °C
As of 11:15 AM on Thursday 27 Nov 2014 (Local Time) from KCRX Reporting Station
Overcast Overcast  
Wind Chill: 39°   Ceiling: 2600
Heat Index: 43°   Visibility: NA
Dew Point: 30°   Wind: 7mph
Humidity: 61%   Direction: 340°NNW
Pressure: 30.44"   Gusts: NA
Location:  34.6645°N, 89.001°W
Report Text: KCRX 271715Z AUTO 34006KT BKN026 OVC032 06/M01 A3044 RMK AO2
Loading
Personal Weather Stations






























Interactive Weather Map New forecast layout! Learn more

10-Day Weather Forecast

Advertisements
Track Severe Weather on mobile